createdAt,value
2017-01-05T00:04:34.686Z,76.6
2017-01-05T00:14:46.692Z,77.3
2017-01-05T00:24:58.765Z,77.3
2017-01-05T00:35:10.925Z,77.7
2017-01-05T00:45:23.021Z,78
2017-01-05T00:55:35.157Z,78.3
2017-01-05T01:05:47.288Z,79
2017-01-05T01:15:59.326Z,78.9
2017-01-05T01:26:11.472Z,78.9
2017-01-05T01:36:23.525Z,79.1
2017-01-05T01:46:35.599Z,79.5
2017-01-05T01:56:47.705Z,80
2017-01-05T02:06:59.781Z,81.1
2017-01-05T02:17:11.880Z,81.1
2017-01-05T02:27:24.102Z,81
2017-01-05T02:37:36.296Z,81.3
2017-01-05T02:47:48.527Z,81.3
2017-01-05T02:58:00.779Z,80.3
2017-01-05T03:08:13.049Z,80.4
2017-01-05T03:18:25.338Z,79.7
2017-01-05T03:28:37.647Z,80.4
2017-01-05T03:38:49.866Z,81
2017-01-05T03:49:02.109Z,81
2017-01-05T03:59:14.395Z,80.1
2017-01-05T04:09:26.680Z,77.5
2017-01-05T04:19:39.025Z,74.6
2017-01-05T04:29:51.408Z,74.5
2017-01-05T04:40:03.821Z,73.7
2017-01-05T04:50:16.200Z,73.2
2017-01-05T05:00:28.573Z,73.5
2017-01-05T05:10:41.022Z,73.5
2017-01-05T05:20:53.465Z,75
2017-01-05T05:31:05.869Z,75.6
2017-01-05T05:41:18.381Z,76.1
2017-01-05T05:51:30.897Z,75.9
2017-01-05T06:01:43.363Z,77.3
2017-01-05T06:11:55.890Z,77.9
2017-01-05T06:22:08.446Z,78.7
2017-01-05T06:32:21.063Z,79.7
2017-01-05T06:42:33.642Z,80.2
2017-01-05T06:52:46.219Z,80.9
2017-01-05T07:02:58.828Z,81.8
2017-01-05T07:13:11.480Z,82
2017-01-05T07:23:24.176Z,81.8
2017-01-05T07:33:36.840Z,81.9
2017-01-05T07:43:49.449Z,82
2017-01-05T07:54:02.078Z,81.5
2017-01-05T08:04:14.507Z,81.7
2017-01-05T08:14:26.632Z,81.8
2017-01-05T08:24:38.607Z,82.4
2017-01-05T08:34:50.368Z,81.7
2017-01-05T08:45:02.020Z,81.9
2017-01-05T08:55:13.532Z,81.7
2017-01-05T09:05:25.067Z,80.9
2017-01-05T09:15:36.333Z,79.4
2017-01-05T09:25:47.602Z,78.2
2017-01-05T09:35:58.754Z,77
2017-01-05T09:46:09.967Z,75.3
2017-01-05T09:56:20.867Z,73.7
2017-01-05T10:06:31.918Z,73.7
2017-01-05T10:16:42.939Z,74.3
2017-01-05T10:26:53.937Z,73.8
2017-01-05T10:37:04.982Z,73.4
2017-01-05T10:47:16.099Z,73.7
2017-01-05T10:57:27.187Z,73.2
2017-01-05T11:07:38.293Z,71.8
2017-01-05T11:17:49.454Z,71.4
2017-01-05T11:28:00.679Z,67.7
2017-01-05T11:38:11.963Z,67.3
2017-01-05T11:48:23.132Z,66.2
2017-01-05T11:58:34.119Z,65.8
2017-01-05T12:08:45.073Z,66.3
2017-01-05T12:18:56.013Z,63.2
2017-01-05T12:29:06.891Z,64.6
2017-01-05T12:39:17.817Z,63.8
2017-01-05T12:49:29.156Z,63.5
2017-01-05T12:59:40.489Z,60.7
2017-01-05T13:09:51.539Z,61.5
2017-01-05T13:20:02.761Z,62.3
2017-01-05T13:30:14.232Z,61.7
2017-01-05T13:40:25.877Z,61.6
2017-01-05T13:50:37.555Z,62.8
2017-01-05T14:00:49.281Z,64.3
2017-01-05T14:11:01.151Z,58.5
2017-01-05T14:21:13.009Z,57.7
2017-01-05T14:31:24.533Z,58.1
2017-01-05T14:41:35.767Z,59.4
2017-01-05T14:51:46.985Z,61.6
2017-01-05T15:01:58.417Z,62.6
2017-01-05T15:12:09.864Z,62.8
2017-01-05T15:22:21.465Z,62.8
2017-01-05T15:32:33.313Z,65.4
2017-01-05T15:42:45.463Z,65.2
2017-01-05T15:52:57.702Z,66.7
2017-01-05T16:03:10.075Z,67.3
2017-01-05T16:13:22.526Z,67.6
2017-01-05T16:23:35.166Z,68.3
2017-01-05T16:33:47.730Z,68.3
2017-01-05T16:44:00.326Z,69
2017-01-05T16:54:12.981Z,69.3
2017-01-05T17:04:25.648Z,70.4
2017-01-05T17:14:38.288Z,70.5
2017-01-05T17:24:50.894Z,70.9
2017-01-05T17:35:03.438Z,69
2017-01-05T17:45:16.075Z,69
2017-01-05T17:55:28.726Z,69
2017-01-05T18:05:41.360Z,71.1
2017-01-05T18:15:54.041Z,71
2017-01-05T18:26:06.751Z,72.2
2017-01-05T18:36:19.459Z,70
2017-01-05T18:46:32.190Z,69.8
2017-01-05T18:56:44.953Z,70
2017-01-05T19:06:57.811Z,70.5
2017-01-05T19:17:10.559Z,71.1
2017-01-05T19:27:23.392Z,71.8
2017-01-05T19:37:36.223Z,72.1
2017-01-05T19:47:49.043Z,71.3
2017-01-05T19:58:01.873Z,71.8
2017-01-05T20:08:14.726Z,71.6
2017-01-05T20:18:27.576Z,72.6
2017-01-05T20:28:40.447Z,71.7
2017-01-05T20:38:53.376Z,71.8
2017-01-05T20:49:06.289Z,73.3
2017-01-05T20:59:19.230Z,74.5
2017-01-05T21:09:32.208Z,74.7
2017-01-05T21:19:45.213Z,74.1
2017-01-05T21:29:58.214Z,74.5
2017-01-05T21:40:11.227Z,74.3
2017-01-05T21:50:25.149Z,73.9
2017-01-05T22:00:37.221Z,74
2017-01-05T22:10:50.206Z,74.1
2017-01-05T22:21:03.269Z,73.7
2017-01-05T22:31:16.386Z,74.3
2017-01-05T22:41:29.478Z,74.3
2017-01-05T22:51:42.525Z,74.7
2017-01-05T23:01:55.625Z,75.1
2017-01-05T23:12:08.689Z,75.8
2017-01-05T23:22:21.806Z,76.1
2017-01-05T23:32:34.984Z,76.2
2017-01-05T23:42:48.142Z,76.4
2017-01-05T23:53:01.293Z,77
